sensor_id;sensor_type;location;lat;lon;timestamp;P1;durP1;ratioP1;P2;durP2;ratioP2
55300;SDS011;58302;51.446;-2.000;2023-07-31T00:00:47;3.08;;;2.00;;
55300;SDS011;58302;51.446;-2.000;2023-07-31T00:03:13;3.88;;;2.38;;
55300;SDS011;58302;51.446;-2.000;2023-07-31T00:05:39;10.15;;;2.97;;
55300;SDS011;58302;51.446;-2.000;2023-07-31T00:08:05;2.42;;;2.15;;
55300;SDS011;58302;51.446;-2.000;2023-07-31T00:10:31;2.55;;;1.70;;
55300;SDS011;58302;51.446;-2.000;2023-07-31T00:12:57;5.28;;;2.20;;
55300;SDS011;58302;51.446;-2.000;2023-07-31T00:15:22;3.63;;;2.58;;
55300;SDS011;58302;51.446;-2.000;2023-07-31T00:17:48;4.28;;;2.17;;
55300;SDS011;58302;51.446;-2.000;2023-07-31T00:20:14;1.73;;;1.50;;
55300;SDS011;58302;51.446;-2.000;2023-07-31T00:22:40;3.67;;;1.63;;
55300;SDS011;58302;51.446;-2.000;2023-07-31T00:25:06;3.47;;;1.65;;
55300;SDS011;58302;51.446;-2.000;2023-07-31T00:27:32;5.82;;;3.25;;
55300;SDS011;58302;51.446;-2.000;2023-07-31T00:29:59;6.30;;;2.47;;
55300;SDS011;58302;51.446;-2.000;2023-07-31T00:32:24;5.57;;;2.55;;
55300;SDS011;58302;51.446;-2.000;2023-07-31T00:34:50;3.58;;;2.40;;
55300;SDS011;58302;51.446;-2.000;2023-07-31T00:37:16;2.42;;;1.70;;
55300;SDS011;58302;51.446;-2.000;2023-07-31T00:39:42;3.13;;;1.65;;
55300;SDS011;58302;51.446;-2.000;2023-07-31T00:42:08;4.05;;;2.63;;
55300;SDS011;58302;51.446;-2.000;2023-07-31T00:44:34;2.95;;;1.73;;
55300;SDS011;58302;51.446;-2.000;2023-07-31T00:47:00;6.88;;;2.70;;
55300;SDS011;58302;51.446;-2.000;2023-07-31T00:49:27;3.80;;;2.70;;
55300;SDS011;58302;51.446;-2.000;2023-07-31T00:51:56;5.03;;;2.33;;
55300;SDS011;58302;51.446;-2.000;2023-07-31T00:54:23;5.72;;;2.70;;
55300;SDS011;58302;51.446;-2.000;2023-07-31T00:56:49;3.13;;;1.52;;
55300;SDS011;58302;51.446;-2.000;2023-07-31T00:59:18;3.28;;;2.33;;
55300;SDS011;58302;51.446;-2.000;2023-07-31T01:01:44;6.20;;;3.00;;
55300;SDS011;58302;51.446;-2.000;2023-07-31T01:04:10;7.43;;;2.30;;
55300;SDS011;58302;51.446;-2.000;2023-07-31T01:09:07;3.50;;;2.10;;
55300;SDS011;58302;51.446;-2.000;2023-07-31T01:11:51;7.68;;;2.50;;
55300;SDS011;58302;51.446;-2.000;2023-07-31T01:14:19;5.85;;;2.72;;
55300;SDS011;58302;51.446;-2.000;2023-07-31T01:16:45;5.00;;;2.72;;
55300;SDS011;58302;51.446;-2.000;2023-07-31T01:19:10;5.10;;;2.53;;
55300;SDS011;58302;51.446;-2.000;2023-07-31T01:27:06;5.65;;;2.97;;
55300;SDS011;58302;51.446;-2.000;2023-07-31T01:32:48;9.02;;;3.45;;
55300;SDS011;58302;51.446;-2.000;2023-07-31T01:35:16;5.82;;;2.17;;
55300;SDS011;58302;51.446;-2.000;2023-07-31T01:37:42;8.18;;;3.15;;
55300;SDS011;58302;51.446;-2.000;2023-07-31T01:40:08;8.73;;;2.90;;
55300;SDS011;58302;51.446;-2.000;2023-07-31T01:42:37;5.80;;;2.83;;
55300;SDS011;58302;51.446;-2.000;2023-07-31T01:45:05;6.32;;;2.70;;
55300;SDS011;58302;51.446;-2.000;2023-07-31T01:47:32;6.18;;;3.33;;
55300;SDS011;58302;51.446;-2.000;2023-07-31T01:49:58;6.65;;;3.90;;
55300;SDS011;58302;51.446;-2.000;2023-07-31T01:52:24;3.63;;;2.85;;
55300;SDS011;58302;51.446;-2.000;2023-07-31T01:54:50;8.95;;;2.63;;
55300;SDS011;58302;51.446;-2.000;2023-07-31T01:57:16;6.60;;;2.92;;
55300;SDS011;58302;51.446;-2.000;2023-07-31T01:59:42;9.48;;;3.85;;
55300;SDS011;58302;51.446;-2.000;2023-07-31T02:02:08;6.88;;;3.47;;
55300;SDS011;58302;51.446;-2.000;2023-07-31T02:04:33;5.35;;;2.60;;
55300;SDS011;58302;51.446;-2.000;2023-07-31T02:07:00;6.57;;;3.10;;
55300;SDS011;58302;51.446;-2.000;2023-07-31T02:09:25;6.28;;;2.80;;
55300;SDS011;58302;51.446;-2.000;2023-07-31T02:11:51;12.05;;;4.35;;
55300;SDS011;58302;51.446;-2.000;2023-07-31T02:14:17;10.45;;;3.47;;
55300;SDS011;58302;51.446;-2.000;2023-07-31T02:16:43;9.90;;;2.80;;
55300;SDS011;58302;51.446;-2.000;2023-07-31T02:19:12;5.70;;;3.40;;
55300;SDS011;58302;51.446;-2.000;2023-07-31T02:21:43;7.03;;;2.90;;
55300;SDS011;58302;51.446;-2.000;2023-07-31T02:24:12;4.50;;;2.55;;
55300;SDS011;58302;51.446;-2.000;2023-07-31T02:26:43;3.90;;;2.13;;
55300;SDS011;58302;51.446;-2.000;2023-07-31T02:29:25;6.47;;;2.58;;
55300;SDS011;58302;51.446;-2.000;2023-07-31T02:31:59;4.65;;;2.00;;
55300;SDS011;58302;51.446;-2.000;2023-07-31T02:34:50;4.53;;;2.05;;
55300;SDS011;58302;51.446;-2.000;2023-07-31T02:37:26;7.63;;;2.33;;
55300;SDS011;58302;51.446;-2.000;2023-07-31T02:39:56;8.57;;;2.47;;
55300;SDS011;58302;51.446;-2.000;2023-07-31T02:42:36;5.82;;;2.13;;
55300;SDS011;58302;51.446;-2.000;2023-07-31T02:45:18;2.63;;;1.60;;
55300;SDS011;58302;51.446;-2.000;2023-07-31T02:47:46;3.63;;;1.63;;
55300;SDS011;58302;51.446;-2.000;2023-07-31T02:50:12;5.10;;;2.03;;
55300;SDS011;58302;51.446;-2.000;2023-07-31T02:52:38;3.03;;;1.45;;
55300;SDS011;58302;51.446;-2.000;2023-07-31T02:57:57;5.32;;;2.13;;
55300;SDS011;58302;51.446;-2.000;2023-07-31T03:00:28;2.38;;;1.58;;
55300;SDS011;58302;51.446;-2.000;2023-07-31T03:03:14;3.15;;;1.77;;
55300;SDS011;58302;51.446;-2.000;2023-07-31T03:05:41;4.97;;;1.85;;
55300;SDS011;58302;51.446;-2.000;2023-07-31T03:08:09;2.05;;;1.33;;
55300;SDS011;58302;51.446;-2.000;2023-07-31T03:10:35;3.35;;;1.25;;
55300;SDS011;58302;51.446;-2.000;2023-07-31T03:13:04;2.80;;;1.83;;
55300;SDS011;58302;51.446;-2.000;2023-07-31T03:15:30;2.25;;;0.98;;
55300;SDS011;58302;51.446;-2.000;2023-07-31T03:17:56;4.25;;;1.23;;
55300;SDS011;58302;51.446;-2.000;2023-07-31T03:20:22;1.85;;;1.20;;
55300;SDS011;58302;51.446;-2.000;2023-07-31T03:22:48;2.38;;;1.10;;
55300;SDS011;58302;51.446;-2.000;2023-07-31T03:25:14;3.08;;;1.23;;
55300;SDS011;58302;51.446;-2.000;2023-07-31T03:27:40;1.20;;;1.10;;
55300;SDS011;58302;51.446;-2.000;2023-07-31T03:30:07;1.77;;;1.10;;
55300;SDS011;58302;51.446;-2.000;2023-07-31T03:32:33;1.40;;;0.75;;
55300;SDS011;58302;51.446;-2.000;2023-07-31T03:34:59;0.98;;;0.65;;
55300;SDS011;58302;51.446;-2.000;2023-07-31T03:37:25;0.70;;;0.60;;
55300;SDS011;58302;51.446;-2.000;2023-07-31T03:39:52;0.93;;;0.68;;
55300;SDS011;58302;51.446;-2.000;2023-07-31T03:42:18;1.42;;;0.90;;
55300;SDS011;58302;51.446;-2.000;2023-07-31T03:44:44;0.93;;;0.65;;
55300;SDS011;58302;51.446;-2.000;2023-07-31T03:47:09;0.50;;;0.50;;
55300;SDS011;58302;51.446;-2.000;2023-07-31T03:49:35;0.90;;;0.63;;
55300;SDS011;58302;51.446;-2.000;2023-07-31T03:52:01;1.58;;;1.00;;
55300;SDS011;58302;51.446;-2.000;2023-07-31T03:54:27;1.65;;;1.00;;
55300;SDS011;58302;51.446;-2.000;2023-07-31T03:56:53;2.35;;;1.30;;
55300;SDS011;58302;51.446;-2.000;2023-07-31T03:59:19;2.40;;;1.50;;
55300;SDS011;58302;51.446;-2.000;2023-07-31T04:01:45;2.25;;;1.48;;
55300;SDS011;58302;51.446;-2.000;2023-07-31T04:04:11;1.92;;;1.38;;
55300;SDS011;58302;51.446;-2.000;2023-07-31T04:06:37;3.38;;;1.60;;
55300;SDS011;58302;51.446;-2.000;2023-07-31T04:09:03;1.92;;;1.50;;
55300;SDS011;58302;51.446;-2.000;2023-07-31T04:11:29;2.78;;;1.70;;
55300;SDS011;58302;51.446;-2.000;2023-07-31T04:13:55;9.35;;;2.80;;
55300;SDS011;58302;51.446;-2.000;2023-07-31T04:16:21;5.68;;;1.98;;
55300;SDS011;58302;51.446;-2.000;2023-07-31T04:18:47;3.33;;;2.75;;
55300;SDS011;58302;51.446;-2.000;2023-07-31T04:21:13;5.60;;;2.63;;
55300;SDS011;58302;51.446;-2.000;2023-07-31T04:23:39;3.75;;;2.70;;
55300;SDS011;58302;51.446;-2.000;2023-07-31T04:26:05;4.00;;;2.30;;
55300;SDS011;58302;51.446;-2.000;2023-07-31T04:28:31;4.18;;;2.78;;
55300;SDS011;58302;51.446;-2.000;2023-07-31T04:30:57;9.73;;;3.00;;
55300;SDS011;58302;51.446;-2.000;2023-07-31T04:33:23;7.20;;;2.90;;
55300;SDS011;58302;51.446;-2.000;2023-07-31T04:35:50;4.00;;;2.15;;
55300;SDS011;58302;51.446;-2.000;2023-07-31T04:38:19;8.13;;;2.55;;
55300;SDS011;58302;51.446;-2.000;2023-07-31T04:40:46;5.15;;;3.17;;
55300;SDS011;58302;51.446;-2.000;2023-07-31T04:43:12;8.93;;;3.35;;
55300;SDS011;58302;51.446;-2.000;2023-07-31T04:45:38;9.38;;;3.78;;
55300;SDS011;58302;51.446;-2.000;2023-07-31T04:48:04;4.97;;;2.25;;
55300;SDS011;58302;51.446;-2.000;2023-07-31T04:50:30;8.95;;;3.65;;
55300;SDS011;58302;51.446;-2.000;2023-07-31T04:52:58;6.40;;;3.15;;
55300;SDS011;58302;51.446;-2.000;2023-07-31T04:55:24;5.07;;;3.47;;
55300;SDS011;58302;51.446;-2.000;2023-07-31T04:57:50;3.88;;;2.50;;
55300;SDS011;58302;51.446;-2.000;2023-07-31T05:00:16;6.63;;;2.65;;
55300;SDS011;58302;51.446;-2.000;2023-07-31T05:02:42;5.35;;;2.65;;
55300;SDS011;58302;51.446;-2.000;2023-07-31T05:05:09;4.13;;;2.55;;
55300;SDS011;58302;51.446;-2.000;2023-07-31T05:07:34;6.20;;;2.92;;
55300;SDS011;58302;51.446;-2.000;2023-07-31T05:10:00;4.20;;;2.25;;
55300;SDS011;58302;51.446;-2.000;2023-07-31T05:12:26;4.95;;;2.75;;
55300;SDS011;58302;51.446;-2.000;2023-07-31T05:14:52;4.30;;;2.70;;
55300;SDS011;58302;51.446;-2.000;2023-07-31T05:17:18;3.30;;;2.50;;
55300;SDS011;58302;51.446;-2.000;2023-07-31T05:19:47;3.65;;;2.00;;
55300;SDS011;58302;51.446;-2.000;2023-07-31T05:22:13;4.70;;;2.95;;
55300;SDS011;58302;51.446;-2.000;2023-07-31T05:24:38;7.97;;;3.83;;
55300;SDS011;58302;51.446;-2.000;2023-07-31T05:27:04;6.75;;;3.17;;
55300;SDS011;58302;51.446;-2.000;2023-07-31T05:29:31;6.93;;;2.92;;
55300;SDS011;58302;51.446;-2.000;2023-07-31T05:31:57;4.65;;;2.13;;
55300;SDS011;58302;51.446;-2.000;2023-07-31T05:34:23;5.63;;;2.67;;
55300;SDS011;58302;51.446;-2.000;2023-07-31T05:36:48;4.88;;;2.40;;
55300;SDS011;58302;51.446;-2.000;2023-07-31T05:39:14;6.28;;;3.03;;
55300;SDS011;58302;51.446;-2.000;2023-07-31T05:41:40;4.80;;;2.30;;
55300;SDS011;58302;51.446;-2.000;2023-07-31T05:44:06;4.50;;;2.75;;
55300;SDS011;58302;51.446;-2.000;2023-07-31T05:46:32;6.35;;;2.97;;
55300;SDS011;58302;51.446;-2.000;2023-07-31T05:48:58;11.48;;;4.10;;
55300;SDS011;58302;51.446;-2.000;2023-07-31T05:51:26;6.78;;;2.92;;
55300;SDS011;58302;51.446;-2.000;2023-07-31T05:53:53;6.35;;;3.03;;
55300;SDS011;58302;51.446;-2.000;2023-07-31T05:56:21;4.28;;;2.80;;
55300;SDS011;58302;51.446;-2.000;2023-07-31T05:58:49;6.45;;;2.65;;
55300;SDS011;58302;51.446;-2.000;2023-07-31T06:01:16;5.30;;;2.65;;
55300;SDS011;58302;51.446;-2.000;2023-07-31T06:03:43;5.57;;;2.55;;
55300;SDS011;58302;51.446;-2.000;2023-07-31T06:06:09;6.78;;;2.97;;
55300;SDS011;58302;51.446;-2.000;2023-07-31T06:08:35;6.70;;;2.95;;
55300;SDS011;58302;51.446;-2.000;2023-07-31T06:11:01;6.65;;;3.13;;
55300;SDS011;58302;51.446;-2.000;2023-07-31T06:13:34;5.57;;;2.90;;
55300;SDS011;58302;51.446;-2.000;2023-07-31T06:16:01;7.43;;;3.88;;
55300;SDS011;58302;51.446;-2.000;2023-07-31T06:18:33;5.68;;;3.00;;
55300;SDS011;58302;51.446;-2.000;2023-07-31T06:20:59;4.25;;;2.85;;
55300;SDS011;58302;51.446;-2.000;2023-07-31T06:23:28;7.75;;;2.88;;
55300;SDS011;58302;51.446;-2.000;2023-07-31T06:25:56;5.53;;;2.72;;
55300;SDS011;58302;51.446;-2.000;2023-07-31T06:28:45;3.08;;;2.25;;
55300;SDS011;58302;51.446;-2.000;2023-07-31T06:35:27;5.80;;;2.97;;
55300;SDS011;58302;51.446;-2.000;2023-07-31T06:37:54;6.43;;;3.45;;
55300;SDS011;58302;51.446;-2.000;2023-07-31T07:13:05;5.25;;;3.00;;
55300;SDS011;58302;51.446;-2.000;2023-07-31T07:15:55;5.18;;;2.72;;
55300;SDS011;58302;51.446;-2.000;2023-07-31T07:19:00;2.85;;;2.05;;
55300;SDS011;58302;51.446;-2.000;2023-07-31T07:21:57;5.78;;;2.53;;
55300;SDS011;58302;51.446;-2.000;2023-07-31T07:24:54;3.47;;;1.77;;
55300;SDS011;58302;51.446;-2.000;2023-07-31T07:27:43;3.20;;;2.33;;
55300;SDS011;58302;51.446;-2.000;2023-07-31T07:30:24;3.83;;;1.90;;
55300;SDS011;58302;51.446;-2.000;2023-07-31T07:32:56;2.58;;;1.75;;
55300;SDS011;58302;51.446;-2.000;2023-07-31T07:35:42;2.65;;;1.40;;
55300;SDS011;58302;51.446;-2.000;2023-07-31T07:38:08;5.88;;;1.92;;
55300;SDS011;58302;51.446;-2.000;2023-07-31T07:40:41;4.50;;;1.38;;
55300;SDS011;58302;51.446;-2.000;2023-07-31T07:43:10;3.70;;;1.75;;
55300;SDS011;58302;51.446;-2.000;2023-07-31T07:45:38;6.30;;;1.80;;
55300;SDS011;58302;51.446;-2.000;2023-07-31T07:48:04;3.00;;;1.98;;
55300;SDS011;58302;51.446;-2.000;2023-07-31T07:54:04;3.53;;;1.65;;
55300;SDS011;58302;51.446;-2.000;2023-07-31T08:03:16;3.85;;;1.75;;
55300;SDS011;58302;51.446;-2.000;2023-07-31T08:09:44;4.80;;;1.40;;
55300;SDS011;58302;51.446;-2.000;2023-07-31T08:12:12;4.05;;;1.58;;
55300;SDS011;58302;51.446;-2.000;2023-07-31T08:14:44;2.28;;;1.52;;
55300;SDS011;58302;51.446;-2.000;2023-07-31T08:17:15;2.80;;;1.40;;
55300;SDS011;58302;51.446;-2.000;2023-07-31T08:19:41;2.05;;;1.38;;
55300;SDS011;58302;51.446;-2.000;2023-07-31T08:22:10;2.78;;;1.60;;
55300;SDS011;58302;51.446;-2.000;2023-07-31T08:24:37;2.92;;;1.48;;
55300;SDS011;58302;51.446;-2.000;2023-07-31T08:27:32;2.92;;;1.10;;
55300;SDS011;58302;51.446;-2.000;2023-07-31T08:30:37;3.63;;;1.63;;
55300;SDS011;58302;51.446;-2.000;2023-07-31T08:34:04;1.92;;;1.23;;
55300;SDS011;58302;51.446;-2.000;2023-07-31T08:36:30;4.18;;;1.58;;
55300;SDS011;58302;51.446;-2.000;2023-07-31T08:38:57;2.78;;;1.33;;
55300;SDS011;58302;51.446;-2.000;2023-07-31T08:41:27;2.47;;;1.42;;
55300;SDS011;58302;51.446;-2.000;2023-07-31T08:43:53;2.50;;;1.30;;
55300;SDS011;58302;51.446;-2.000;2023-07-31T08:46:20;2.22;;;1.42;;
55300;SDS011;58302;51.446;-2.000;2023-07-31T08:48:47;3.58;;;1.98;;
55300;SDS011;58302;51.446;-2.000;2023-07-31T08:51:14;2.28;;;1.45;;
55300;SDS011;58302;51.446;-2.000;2023-07-31T08:53:41;3.47;;;1.42;;
55300;SDS011;58302;51.446;-2.000;2023-07-31T08:56:07;3.40;;;1.50;;
55300;SDS011;58302;51.446;-2.000;2023-07-31T08:58:34;2.70;;;1.38;;
55300;SDS011;58302;51.446;-2.000;2023-07-31T09:01:04;3.88;;;1.45;;
55300;SDS011;58302;51.446;-2.000;2023-07-31T09:03:35;2.03;;;1.40;;
55300;SDS011;58302;51.446;-2.000;2023-07-31T09:08:32;3.35;;;2.65;;
55300;SDS011;58302;51.446;-2.000;2023-07-31T09:11:06;3.88;;;1.88;;
55300;SDS011;58302;51.446;-2.000;2023-07-31T09:13:44;2.90;;;1.55;;
55300;SDS011;58302;51.446;-2.000;2023-07-31T09:16:13;2.58;;;1.67;;
55300;SDS011;58302;51.446;-2.000;2023-07-31T09:18:55;2.40;;;1.65;;
55300;SDS011;58302;51.446;-2.000;2023-07-31T09:21:30;4.78;;;2.22;;
55300;SDS011;58302;51.446;-2.000;2023-07-31T09:27:19;5.63;;;2.17;;
55300;SDS011;58302;51.446;-2.000;2023-07-31T09:40:59;3.25;;;2.03;;
55300;SDS011;58302;51.446;-2.000;2023-07-31T09:46:51;4.57;;;2.00;;
55300;SDS011;58302;51.446;-2.000;2023-07-31T09:52:39;5.25;;;2.45;;
55300;SDS011;58302;51.446;-2.000;2023-07-31T10:31:56;4.78;;;2.35;;
55300;SDS011;58302;51.446;-2.000;2023-07-31T10:34:43;8.52;;;3.63;;
55300;SDS011;58302;51.446;-2.000;2023-07-31T11:16:35;6.93;;;3.85;;
55300;SDS011;58302;51.446;-2.000;2023-07-31T11:19:04;12.55;;;4.82;;
55300;SDS011;58302;51.446;-2.000;2023-07-31T11:21:36;12.27;;;4.25;;
55300;SDS011;58302;51.446;-2.000;2023-07-31T11:24:03;7.85;;;3.85;;
55300;SDS011;58302;51.446;-2.000;2023-07-31T11:26:30;12.60;;;4.53;;
55300;SDS011;58302;51.446;-2.000;2023-07-31T11:34:27;6.38;;;4.35;;
55300;SDS011;58302;51.446;-2.000;2023-07-31T11:36:54;10.07;;;3.83;;
55300;SDS011;58302;51.446;-2.000;2023-07-31T11:39:22;7.03;;;4.00;;
55300;SDS011;58302;51.446;-2.000;2023-07-31T11:41:48;9.95;;;3.75;;
55300;SDS011;58302;51.446;-2.000;2023-07-31T11:44:22;10.55;;;3.90;;
55300;SDS011;58302;51.446;-2.000;2023-07-31T11:46:49;8.85;;;3.50;;
55300;SDS011;58302;51.446;-2.000;2023-07-31T11:49:18;9.77;;;3.80;;
55300;SDS011;58302;51.446;-2.000;2023-07-31T11:51:44;10.98;;;5.03;;
55300;SDS011;58302;51.446;-2.000;2023-07-31T11:54:10;12.75;;;3.65;;
55300;SDS011;58302;51.446;-2.000;2023-07-31T11:56:38;11.60;;;3.92;;
55300;SDS011;58302;51.446;-2.000;2023-07-31T11:59:07;12.88;;;4.70;;
55300;SDS011;58302;51.446;-2.000;2023-07-31T12:01:53;7.68;;;3.90;;
55300;SDS011;58302;51.446;-2.000;2023-07-31T12:04:26;8.40;;;3.72;;
55300;SDS011;58302;51.446;-2.000;2023-07-31T12:07:00;10.95;;;4.45;;
55300;SDS011;58302;51.446;-2.000;2023-07-31T12:09:26;14.18;;;4.40;;
55300;SDS011;58302;51.446;-2.000;2023-07-31T12:11:59;12.38;;;4.53;;
55300;SDS011;58302;51.446;-2.000;2023-07-31T12:14:41;12.90;;;5.15;;
55300;SDS011;58302;51.446;-2.000;2023-07-31T12:17:16;11.63;;;4.18;;
55300;SDS011;58302;51.446;-2.000;2023-07-31T12:19:45;11.10;;;4.65;;
55300;SDS011;58302;51.446;-2.000;2023-07-31T12:25:05;10.55;;;4.35;;
55300;SDS011;58302;51.446;-2.000;2023-07-31T12:27:32;12.20;;;5.43;;
55300;SDS011;58302;51.446;-2.000;2023-07-31T12:30:00;14.23;;;5.38;;
55300;SDS011;58302;51.446;-2.000;2023-07-31T12:32:26;13.65;;;5.25;;
55300;SDS011;58302;51.446;-2.000;2023-07-31T12:34:59;13.60;;;5.82;;
55300;SDS011;58302;51.446;-2.000;2023-07-31T12:37:29;9.95;;;4.90;;
55300;SDS011;58302;51.446;-2.000;2023-07-31T12:39:55;15.15;;;6.57;;
55300;SDS011;58302;51.446;-2.000;2023-07-31T12:42:24;11.65;;;5.90;;
55300;SDS011;58302;51.446;-2.000;2023-07-31T12:44:50;11.80;;;5.20;;
55300;SDS011;58302;51.446;-2.000;2023-07-31T12:47:23;11.55;;;4.35;;
55300;SDS011;58302;51.446;-2.000;2023-07-31T12:49:49;9.65;;;4.63;;
55300;SDS011;58302;51.446;-2.000;2023-07-31T12:52:15;12.48;;;4.25;;
55300;SDS011;58302;51.446;-2.000;2023-07-31T12:54:41;12.43;;;5.38;;
55300;SDS011;58302;51.446;-2.000;2023-07-31T12:57:07;12.05;;;4.20;;
55300;SDS011;58302;51.446;-2.000;2023-07-31T12:59:33;14.25;;;4.88;;
55300;SDS011;58302;51.446;-2.000;2023-07-31T13:01:59;11.75;;;5.97;;
55300;SDS011;58302;51.446;-2.000;2023-07-31T13:04:25;8.65;;;4.10;;
55300;SDS011;58302;51.446;-2.000;2023-07-31T13:06:51;10.77;;;5.60;;
55300;SDS011;58302;51.446;-2.000;2023-07-31T13:09:17;10.88;;;4.88;;
55300;SDS011;58302;51.446;-2.000;2023-07-31T13:11:43;8.27;;;4.28;;
55300;SDS011;58302;51.446;-2.000;2023-07-31T13:14:09;8.10;;;5.05;;
55300;SDS011;58302;51.446;-2.000;2023-07-31T13:16:42;9.60;;;4.38;;
55300;SDS011;58302;51.446;-2.000;2023-07-31T13:19:08;14.27;;;4.75;;
55300;SDS011;58302;51.446;-2.000;2023-07-31T13:21:34;7.95;;;3.45;;
55300;SDS011;58302;51.446;-2.000;2023-07-31T13:24:02;10.48;;;4.68;;
55300;SDS011;58302;51.446;-2.000;2023-07-31T13:26:29;8.50;;;4.65;;
55300;SDS011;58302;51.446;-2.000;2023-07-31T13:28:56;11.02;;;4.05;;
55300;SDS011;58302;51.446;-2.000;2023-07-31T13:31:30;9.75;;;4.38;;
55300;SDS011;58302;51.446;-2.000;2023-07-31T13:34:15;9.52;;;5.03;;
55300;SDS011;58302;51.446;-2.000;2023-07-31T13:36:45;7.25;;;3.97;;
55300;SDS011;58302;51.446;-2.000;2023-07-31T13:39:19;10.82;;;3.88;;
55300;SDS011;58302;51.446;-2.000;2023-07-31T13:41:45;6.95;;;3.50;;
55300;SDS011;58302;51.446;-2.000;2023-07-31T13:44:11;11.15;;;4.38;;
55300;SDS011;58302;51.446;-2.000;2023-07-31T13:46:39;6.63;;;3.00;;
55300;SDS011;58302;51.446;-2.000;2023-07-31T13:49:08;10.68;;;4.30;;
55300;SDS011;58302;51.446;-2.000;2023-07-31T13:54:12;7.80;;;4.07;;
55300;SDS011;58302;51.446;-2.000;2023-07-31T13:57:09;7.10;;;3.88;;
55300;SDS011;58302;51.446;-2.000;2023-07-31T14:02:49;10.63;;;3.97;;
55300;SDS011;58302;51.446;-2.000;2023-07-31T14:08:10;6.55;;;4.50;;
55300;SDS011;58302;51.446;-2.000;2023-07-31T14:10:50;10.93;;;3.92;;
55300;SDS011;58302;51.446;-2.000;2023-07-31T14:13:47;9.20;;;4.13;;
55300;SDS011;58302;51.446;-2.000;2023-07-31T14:16:48;9.10;;;3.92;;
55300;SDS011;58302;51.446;-2.000;2023-07-31T14:23:10;8.25;;;4.18;;
55300;SDS011;58302;51.446;-2.000;2023-07-31T15:05:05;4.03;;;2.65;;
55300;SDS011;58302;51.446;-2.000;2023-07-31T15:07:33;4.30;;;3.10;;
55300;SDS011;58302;51.446;-2.000;2023-07-31T15:10:12;6.32;;;2.85;;
55300;SDS011;58302;51.446;-2.000;2023-07-31T15:12:40;5.18;;;2.30;;
55300;SDS011;58302;51.446;-2.000;2023-07-31T15:15:09;4.90;;;3.80;;
55300;SDS011;58302;51.446;-2.000;2023-07-31T15:17:36;5.10;;;2.42;;
55300;SDS011;58302;51.446;-2.000;2023-07-31T15:20:03;5.95;;;2.67;;
55300;SDS011;58302;51.446;-2.000;2023-07-31T15:22:29;3.33;;;2.17;;
55300;SDS011;58302;51.446;-2.000;2023-07-31T15:25:07;2.65;;;2.00;;
55300;SDS011;58302;51.446;-2.000;2023-07-31T15:27:55;5.18;;;2.10;;
55300;SDS011;58302;51.446;-2.000;2023-07-31T15:30:25;4.07;;;2.20;;
55300;SDS011;58302;51.446;-2.000;2023-07-31T15:32:52;8.13;;;2.10;;
55300;SDS011;58302;51.446;-2.000;2023-07-31T15:35:18;4.13;;;2.30;;
55300;SDS011;58302;51.446;-2.000;2023-07-31T15:37:44;4.00;;;1.90;;
55300;SDS011;58302;51.446;-2.000;2023-07-31T15:40:10;3.13;;;2.20;;
55300;SDS011;58302;51.446;-2.000;2023-07-31T15:42:36;4.13;;;2.20;;
55300;SDS011;58302;51.446;-2.000;2023-07-31T15:45:14;4.10;;;2.67;;
55300;SDS011;58302;51.446;-2.000;2023-07-31T15:48:21;3.50;;;2.55;;
55300;SDS011;58302;51.446;-2.000;2023-07-31T15:51:02;5.15;;;2.38;;
55300;SDS011;58302;51.446;-2.000;2023-07-31T15:57:46;3.95;;;1.75;;
55300;SDS011;58302;51.446;-2.000;2023-07-31T16:00:51;5.35;;;2.30;;
55300;SDS011;58302;51.446;-2.000;2023-07-31T16:03:18;4.13;;;2.22;;
55300;SDS011;58302;51.446;-2.000;2023-07-31T16:06:05;6.95;;;2.63;;
55300;SDS011;58302;51.446;-2.000;2023-07-31T16:08:42;5.60;;;2.42;;
55300;SDS011;58302;51.446;-2.000;2023-07-31T16:25:06;7.72;;;2.75;;
55300;SDS011;58302;51.446;-2.000;2023-07-31T16:31:54;5.55;;;2.35;;
55300;SDS011;58302;51.446;-2.000;2023-07-31T16:34:20;5.15;;;2.00;;
55300;SDS011;58302;51.446;-2.000;2023-07-31T16:36:46;6.32;;;2.70;;
55300;SDS011;58302;51.446;-2.000;2023-07-31T16:39:21;5.22;;;3.03;;
55300;SDS011;58302;51.446;-2.000;2023-07-31T16:42:04;5.32;;;3.10;;
55300;SDS011;58302;51.446;-2.000;2023-07-31T16:44:31;6.60;;;3.10;;
55300;SDS011;58302;51.446;-2.000;2023-07-31T16:46:57;5.35;;;3.15;;
55300;SDS011;58302;51.446;-2.000;2023-07-31T16:49:23;9.27;;;2.97;;
55300;SDS011;58302;51.446;-2.000;2023-07-31T16:51:49;4.90;;;2.20;;
55300;SDS011;58302;51.446;-2.000;2023-07-31T16:54:15;5.72;;;3.03;;
55300;SDS011;58302;51.446;-2.000;2023-07-31T16:56:41;7.22;;;3.08;;
55300;SDS011;58302;51.446;-2.000;2023-07-31T16:59:07;4.45;;;2.65;;
55300;SDS011;58302;51.446;-2.000;2023-07-31T17:01:33;6.82;;;2.53;;
55300;SDS011;58302;51.446;-2.000;2023-07-31T17:03:59;5.75;;;2.72;;
55300;SDS011;58302;51.446;-2.000;2023-07-31T17:06:26;4.85;;;2.22;;
55300;SDS011;58302;51.446;-2.000;2023-07-31T17:08:55;5.57;;;2.72;;
55300;SDS011;58302;51.446;-2.000;2023-07-31T17:11:23;8.60;;;3.88;;
55300;SDS011;58302;51.446;-2.000;2023-07-31T17:13:50;5.13;;;2.60;;
55300;SDS011;58302;51.446;-2.000;2023-07-31T17:16:16;7.30;;;3.03;;
55300;SDS011;58302;51.446;-2.000;2023-07-31T17:18:43;4.70;;;2.50;;
55300;SDS011;58302;51.446;-2.000;2023-07-31T17:21:09;10.07;;;3.58;;
55300;SDS011;58302;51.446;-2.000;2023-07-31T17:23:35;5.43;;;2.83;;
55300;SDS011;58302;51.446;-2.000;2023-07-31T17:26:01;5.40;;;2.88;;
55300;SDS011;58302;51.446;-2.000;2023-07-31T17:28:27;5.00;;;2.58;;
55300;SDS011;58302;51.446;-2.000;2023-07-31T17:30:53;4.35;;;3.25;;
55300;SDS011;58302;51.446;-2.000;2023-07-31T17:33:19;5.57;;;2.83;;
55300;SDS011;58302;51.446;-2.000;2023-07-31T17:35:45;8.95;;;2.83;;
55300;SDS011;58302;51.446;-2.000;2023-07-31T17:38:11;7.57;;;3.35;;
55300;SDS011;58302;51.446;-2.000;2023-07-31T17:40:38;7.45;;;3.50;;
55300;SDS011;58302;51.446;-2.000;2023-07-31T17:43:03;5.90;;;2.72;;
55300;SDS011;58302;51.446;-2.000;2023-07-31T17:45:29;5.28;;;2.88;;
55300;SDS011;58302;51.446;-2.000;2023-07-31T17:47:57;5.05;;;3.05;;
55300;SDS011;58302;51.446;-2.000;2023-07-31T17:50:23;6.30;;;2.90;;
55300;SDS011;58302;51.446;-2.000;2023-07-31T17:52:49;6.03;;;4.03;;
55300;SDS011;58302;51.446;-2.000;2023-07-31T17:55:15;7.03;;;3.20;;
55300;SDS011;58302;51.446;-2.000;2023-07-31T17:57:41;5.63;;;2.70;;
55300;SDS011;58302;51.446;-2.000;2023-07-31T18:00:07;8.07;;;2.53;;
55300;SDS011;58302;51.446;-2.000;2023-07-31T18:02:34;3.63;;;2.50;;
55300;SDS011;58302;51.446;-2.000;2023-07-31T18:05:03;7.85;;;2.40;;
55300;SDS011;58302;51.446;-2.000;2023-07-31T18:07:30;4.75;;;2.35;;
55300;SDS011;58302;51.446;-2.000;2023-07-31T18:09:56;5.38;;;2.42;;
55300;SDS011;58302;51.446;-2.000;2023-07-31T18:12:22;3.97;;;2.50;;
55300;SDS011;58302;51.446;-2.000;2023-07-31T18:14:48;4.13;;;2.38;;
55300;SDS011;58302;51.446;-2.000;2023-07-31T18:17:14;6.80;;;3.10;;
55300;SDS011;58302;51.446;-2.000;2023-07-31T18:19:41;5.25;;;2.40;;
55300;SDS011;58302;51.446;-2.000;2023-07-31T18:22:07;7.13;;;2.90;;
55300;SDS011;58302;51.446;-2.000;2023-07-31T18:24:33;5.35;;;3.25;;
55300;SDS011;58302;51.446;-2.000;2023-07-31T18:26:59;3.78;;;2.05;;
55300;SDS011;58302;51.446;-2.000;2023-07-31T18:29:25;5.75;;;2.58;;
55300;SDS011;58302;51.446;-2.000;2023-07-31T18:31:51;4.80;;;2.50;;
55300;SDS011;58302;51.446;-2.000;2023-07-31T18:34:17;5.63;;;3.03;;
55300;SDS011;58302;51.446;-2.000;2023-07-31T18:36:43;5.57;;;2.60;;
55300;SDS011;58302;51.446;-2.000;2023-07-31T18:39:09;4.20;;;2.47;;
55300;SDS011;58302;51.446;-2.000;2023-07-31T18:41:35;5.30;;;2.45;;
55300;SDS011;58302;51.446;-2.000;2023-07-31T18:44:01;4.53;;;2.67;;
55300;SDS011;58302;51.446;-2.000;2023-07-31T18:46:27;8.88;;;3.05;;
55300;SDS011;58302;51.446;-2.000;2023-07-31T18:48:53;7.20;;;2.47;;
55300;SDS011;58302;51.446;-2.000;2023-07-31T18:51:19;6.32;;;2.22;;
55300;SDS011;58302;51.446;-2.000;2023-07-31T18:53:45;7.50;;;3.35;;